createdAt,value
2023-01-29T08:19:35.626Z,979.94
2023-01-29T08:20:08.621Z,979.98
2023-01-29T08:21:08.644Z,979.91
2023-01-29T08:22:08.716Z,979.90
2023-01-29T08:23:08.727Z,979.90
2023-01-29T08:24:08.764Z,979.88
2023-01-29T08:25:08.924Z,979.92
2023-01-29T08:26:08.844Z,979.94
2023-01-29T08:27:08.892Z,979.98
2023-01-29T08:28:08.932Z,980.02
2023-01-29T08:29:08.984Z,980.01
2023-01-29T08:30:09.079Z,980.02
2023-01-29T08:31:09.145Z,980.10
2023-01-29T08:32:09.109Z,980.07
2023-01-29T08:33:09.134Z,980.07
2023-01-29T08:34:09.176Z,980.06
2023-01-29T08:35:09.238Z,980.09
2023-01-29T08:36:09.294Z,980.09
2023-01-29T08:37:09.318Z,980.13
2023-01-29T08:38:09.344Z,980.12
2023-01-29T08:39:09.402Z,980.10
2023-01-29T08:40:09.534Z,980.08
2023-01-29T08:41:09.495Z,980.08
2023-01-29T08:42:09.563Z,980.09
2023-01-29T08:43:09.715Z,980.06
2023-01-29T08:46:46.982Z,980.03
2023-01-29T08:47:47.003Z,980.06
2023-01-29T08:48:47.035Z,980.05
2023-01-29T08:49:47.077Z,980.09
2023-01-29T08:50:47.116Z,980.12
2023-01-29T08:51:47.312Z,980.11
2023-01-29T08:52:47.190Z,980.16
2023-01-29T08:53:47.275Z,980.18
2023-01-29T08:54:47.276Z,980.20
2023-01-29T08:55:47.332Z,980.23
2023-01-29T08:56:47.359Z,980.22
2023-01-29T08:57:47.416Z,980.26
2023-01-29T08:58:47.446Z,980.30
2023-01-29T08:59:47.509Z,980.32
2023-01-29T09:00:47.526Z,980.37
2023-01-29T09:01:47.592Z,980.34
2023-01-29T09:02:47.726Z,980.37
2023-01-29T09:03:47.661Z,980.40
2023-01-29T09:04:47.699Z,980.37
2023-01-29T09:05:47.740Z,980.39
2023-01-29T09:06:47.800Z,980.38
2023-01-29T09:07:55.115Z,980.43
2023-01-29T09:08:47.869Z,980.42
2023-01-29T09:09:47.935Z,980.43
2023-01-29T09:10:47.954Z,980.41
2023-01-29T09:11:48.053Z,980.44
2023-01-29T09:12:48.043Z,980.42
2023-01-29T09:13:48.077Z,980.48
2023-01-29T09:14:48.123Z,980.51
2023-01-29T09:15:48.173Z,980.49
2023-01-29T09:16:48.241Z,980.49
2023-01-29T09:17:48.266Z,980.57
2023-01-29T09:18:48.298Z,980.55
2023-01-29T09:19:49.060Z,980.58
2023-01-29T09:20:48.386Z,980.61
2023-01-29T09:21:48.459Z,980.60
2023-01-29T09:22:48.470Z,980.61
2023-01-29T09:23:48.503Z,980.66
2023-01-29T09:24:48.587Z,980.66
2023-01-29T09:25:48.627Z,980.63
2023-01-29T09:26:48.645Z,980.67
2023-01-29T09:27:48.699Z,980.65
2023-01-29T09:28:48.749Z,980.64
2023-01-29T09:29:48.787Z,980.58
2023-01-29T09:30:48.944Z,980.57
2023-01-29T09:31:49.676Z,980.58
2023-01-29T09:32:53.906Z,980.59
2023-01-29T09:33:48.950Z,980.54
2023-01-29T09:34:48.980Z,980.54
2023-01-29T09:35:49.059Z,980.56
2023-01-29T09:36:49.082Z,980.58
2023-01-29T09:37:49.157Z,980.58
2023-01-29T09:38:49.166Z,980.59
2023-01-29T09:39:49.202Z,980.56
2023-01-29T09:40:49.315Z,980.54
2023-01-29T09:41:49.295Z,980.58
2023-01-29T09:42:49.328Z,980.57
2023-01-29T09:43:49.373Z,980.61
2023-01-29T09:44:49.414Z,980.65
2023-01-29T09:45:49.518Z,980.66
2023-01-29T09:46:49.510Z,980.63
2023-01-29T09:47:49.543Z,980.62
2023-01-29T09:48:49.606Z,980.62
2023-01-29T09:49:49.638Z,980.66
2023-01-29T09:50:49.710Z,980.69
2023-01-29T09:51:49.721Z,980.66
2023-01-29T09:52:49.768Z,980.70
2023-01-29T09:53:49.812Z,980.76
2023-01-29T09:54:49.877Z,980.70
2023-01-29T09:55:49.897Z,980.70
2023-01-29T09:56:49.969Z,980.70
2023-01-29T09:57:49.989Z,980.68
2023-01-29T09:58:50.034Z,980.70
2023-01-29T09:59:50.096Z,980.72
2023-01-29T10:00:50.133Z,980.71
2023-01-29T10:01:50.303Z,980.76
2023-01-29T10:02:50.215Z,980.75
2023-01-29T10:03:50.285Z,980.76
2023-01-29T10:04:50.330Z,980.79
2023-01-29T10:05:50.378Z,980.75
2023-01-29T10:06:51.061Z,980.81
2023-01-29T10:07:50.484Z,980.78
2023-01-29T10:08:50.504Z,980.79
2023-01-29T10:09:50.526Z,980.75
2023-01-29T10:10:50.576Z,980.78
2023-01-29T10:11:50.618Z,980.80
2023-01-29T10:12:51.570Z,980.80
2023-01-29T10:13:50.724Z,980.82
2023-01-29T10:14:50.767Z,980.83
2023-01-29T10:15:50.802Z,980.84
2023-01-29T10:16:50.895Z,980.81
2023-01-29T10:17:50.896Z,980.84
2023-01-29T10:18:50.958Z,980.83
2023-01-29T10:19:50.976Z,980.80
2023-01-29T10:20:51.031Z,980.85
2023-01-29T10:21:51.088Z,980.83
2023-01-29T10:22:51.154Z,980.80
2023-01-29T10:23:51.196Z,980.82
2023-01-29T10:24:51.222Z,980.82
2023-01-29T10:25:51.258Z,980.81
2023-01-29T10:26:51.347Z,980.85
2023-01-29T10:27:51.355Z,980.91
2023-01-29T10:28:51.406Z,980.86
2023-01-29T10:29:51.451Z,980.90
2023-01-29T10:30:51.628Z,980.89
2023-01-29T10:31:51.688Z,980.88
2023-01-29T10:32:51.618Z,980.88
2023-01-29T10:34:02.126Z,980.86
2023-01-29T10:34:51.720Z,980.86
2023-01-29T10:35:51.758Z,980.91
2023-01-29T10:36:51.784Z,980.88
2023-01-29T10:37:51.829Z,980.85
2023-01-29T10:38:51.874Z,980.81
2023-01-29T10:39:51.930Z,980.79
2023-01-29T10:40:51.985Z,980.75
2023-01-29T10:41:53.879Z,980.71
2023-01-29T10:42:52.063Z,980.74
2023-01-29T10:43:52.101Z,980.70
2023-01-29T10:44:52.203Z,980.70
2023-01-29T10:45:52.197Z,980.67
2023-01-29T10:46:52.297Z,980.68
2023-01-29T10:47:52.376Z,980.68
2023-01-29T10:48:52.340Z,980.68
2023-01-29T10:49:52.396Z,980.71
2023-01-29T10:50:52.478Z,980.73
2023-01-29T10:51:52.502Z,980.70
2023-01-29T10:52:52.530Z,980.66
2023-01-29T10:53:52.587Z,980.69
2023-01-29T10:54:52.644Z,980.69
2023-01-29T10:55:52.706Z,980.67
2023-01-29T10:56:52.736Z,980.63
2023-01-29T10:57:52.790Z,980.65
2023-01-29T10:58:52.823Z,980.66
2023-01-29T10:59:52.895Z,980.68
2023-01-29T11:00:52.957Z,980.69
2023-01-29T11:01:53.037Z,980.71
2023-01-29T11:02:53.100Z,980.63
2023-01-29T11:03:53.126Z,980.65
2023-01-29T11:04:53.152Z,980.59
2023-01-29T11:05:53.197Z,980.55
2023-01-29T11:06:53.219Z,980.56
2023-01-29T11:07:53.315Z,980.54
2023-01-29T11:08:53.315Z,980.45
2023-01-29T11:09:53.368Z,980.41
2023-01-29T11:10:53.445Z,980.37
2023-01-29T11:11:53.497Z,980.35
2023-01-29T11:12:53.523Z,980.35
2023-01-29T11:13:53.593Z,980.29
2023-01-29T11:14:53.625Z,980.34
2023-01-29T11:15:53.683Z,980.29
2023-01-29T11:16:53.767Z,980.29
2023-01-29T11:17:54.588Z,980.25
2023-01-29T11:18:53.847Z,980.31
2023-01-29T11:19:53.871Z,980.24
2023-01-29T11:20:53.888Z,980.23
2023-01-29T11:21:53.963Z,980.19
2023-01-29T11:22:53.999Z,980.22
2023-01-29T11:23:54.035Z,980.17
2023-01-29T11:25:02.131Z,980.18
2023-01-29T11:25:54.137Z,980.14
2023-01-29T11:26:54.160Z,980.13
2023-01-29T11:27:54.233Z,980.12
2023-01-29T11:28:54.257Z,980.09
2023-01-29T11:29:55.123Z,980.09
2023-01-29T11:30:54.411Z,980.07
2023-01-29T11:31:54.407Z,980.03
2023-01-29T11:32:54.468Z,980.00
2023-01-29T11:33:54.471Z,980.03
2023-01-29T11:34:54.510Z,980.05
2023-01-29T11:35:54.564Z,980.08
2023-01-29T11:36:54.600Z,980.00
2023-01-29T11:37:54.680Z,980.03
2023-01-29T11:38:54.687Z,980.04
2023-01-29T11:39:54.735Z,980.04
2023-01-29T11:40:54.769Z,980.00
2023-01-29T11:41:54.840Z,980.00
2023-01-29T11:42:54.886Z,980.04
2023-01-29T11:43:54.922Z,980.03
2023-01-29T11:44:54.947Z,980.07
2023-01-29T11:45:54.986Z,980.05
2023-01-29T11:46:55.039Z,980.05
2023-01-29T11:47:55.083Z,980.05
2023-01-29T11:48:59.342Z,980.03
2023-01-29T11:49:55.169Z,980.03
2023-01-29T11:50:55.314Z,980.02
2023-01-29T11:51:55.636Z,980.00
2023-01-29T11:52:55.327Z,979.96
2023-01-29T11:53:55.365Z,979.95
2023-01-29T11:54:55.413Z,980.00
2023-01-29T11:55:55.415Z,979.96
2023-01-29T11:56:55.470Z,979.92
2023-01-29T11:57:55.513Z,979.92
2023-01-29T11:58:55.613Z,979.91
2023-01-29T11:59:55.597Z,979.89
2023-01-29T12:00:55.671Z,979.87
2023-01-29T12:01:55.690Z,979.86
2023-01-29T12:02:55.721Z,979.85
2023-01-29T12:03:55.844Z,979.83
2023-01-29T12:04:55.806Z,979.80
2023-01-29T12:05:55.919Z,979.80
2023-01-29T12:06:55.903Z,979.78
2023-01-29T12:07:55.957Z,979.76
2023-01-29T12:08:56.014Z,979.77
2023-01-29T12:09:56.027Z,979.76
2023-01-29T12:10:56.078Z,979.75
2023-01-29T12:11:56.146Z,979.76
2023-01-29T12:12:56.163Z,979.76
2023-01-29T12:13:56.203Z,979.70
2023-01-29T12:14:56.249Z,979.67
2023-01-29T12:15:56.333Z,979.67
2023-01-29T12:16:56.337Z,979.66
2023-01-29T12:17:56.378Z,979.62
2023-01-29T12:18:56.461Z,979.64
2023-01-29T12:19:56.482Z,979.59
2023-01-29T12:20:56.513Z,979.59
2023-01-29T12:21:56.555Z,979.56
2023-01-29T12:22:56.625Z,979.62
2023-01-29T12:23:56.641Z,979.55
2023-01-29T12:24:56.710Z,979.62
2023-01-29T12:25:56.739Z,979.60
2023-01-29T12:26:56.791Z,979.55
2023-01-29T12:27:56.838Z,979.56
2023-01-29T12:28:56.903Z,979.57
2023-01-29T12:29:56.920Z,979.56
2023-01-29T12:30:56.975Z,979.55
2023-01-29T12:31:57.002Z,979.54
2023-01-29T12:32:57.066Z,979.55
2023-01-29T12:33:57.089Z,979.55
2023-01-29T12:34:57.132Z,979.52
2023-01-29T12:35:57.169Z,979.53
2023-01-29T12:36:57.242Z,979.51
2023-01-29T12:37:57.268Z,979.50
2023-01-29T12:38:57.329Z,979.48
2023-01-29T12:39:57.375Z,979.51
2023-01-29T12:40:57.397Z,979.53
2023-01-29T12:41:57.442Z,979.55
2023-01-29T12:42:57.507Z,979.55
2023-01-29T12:43:57.548Z,979.56
2023-01-29T12:44:57.570Z,979.56
2023-01-29T12:45:57.614Z,979.61
2023-01-29T12:46:58.665Z,979.61
2023-01-29T12:47:57.741Z,979.66
2023-01-29T12:48:57.746Z,979.60
2023-01-29T12:49:57.807Z,979.65
2023-01-29T12:50:57.826Z,979.61
2023-01-29T12:51:57.914Z,979.61
2023-01-29T12:52:57.911Z,979.55
2023-01-29T12:53:57.962Z,979.57
2023-01-29T12:54:58.059Z,979.60
2023-01-29T12:55:58.079Z,979.55
2023-01-29T12:56:58.176Z,979.55
2023-01-29T12:57:58.145Z,979.54
2023-01-29T12:58:58.187Z,979.57
2023-01-29T12:59:58.265Z,979.49
2023-01-29T13:00:58.275Z,979.48
2023-01-29T13:01:58.325Z,979.47
2023-01-29T13:02:58.422Z,979.41
2023-01-29T13:03:58.405Z,979.40
2023-01-29T13:04:58.487Z,979.39
2023-01-29T13:05:58.497Z,979.34
2023-01-29T13:06:58.534Z,979.33
2023-01-29T13:07:58.583Z,979.29
2023-01-29T13:08:58.637Z,979.31
2023-01-29T13:09:58.706Z,979.30
2023-01-29T13:10:58.728Z,979.30
2023-01-29T13:11:58.757Z,979.28
2023-01-29T13:12:58.805Z,979.31
2023-01-29T13:13:58.869Z,979.29
2023-01-29T13:14:58.935Z,979.25
2023-01-29T13:15:58.941Z,979.23
2023-01-29T13:16:58.979Z,979.34
2023-01-29T13:17:59.051Z,979.27
2023-01-29T13:18:59.070Z,979.31
2023-01-29T13:19:59.115Z,979.28
2023-01-29T13:20:59.154Z,979.23
2023-01-29T13:21:59.223Z,979.24
2023-01-29T13:22:59.285Z,979.20
2023-01-29T13:23:59.284Z,979.20
2023-01-29T13:25:05.259Z,979.20
2023-01-29T13:26:00.154Z,979.26
2023-01-29T13:26:59.423Z,979.24
2023-01-29T13:27:59.492Z,979.18
2023-01-29T13:28:59.517Z,979.22
2023-01-29T13:29:59.561Z,979.20
2023-01-29T13:30:59.672Z,979.22
2023-01-29T13:31:59.709Z,979.25
2023-01-29T13:32:59.714Z,979.25
2023-01-29T13:33:59.731Z,979.26
2023-01-29T13:34:59.810Z,979.22
2023-01-29T13:35:59.812Z,979.26
2023-01-29T13:36:59.871Z,979.26
2023-01-29T13:37:59.905Z,979.21
2023-01-29T13:38:59.953Z,979.23
2023-01-29T13:40:00.030Z,979.21
2023-01-29T13:41:00.063Z,979.16
2023-01-29T13:42:00.104Z,979.15
2023-01-29T13:43:00.566Z,979.16
2023-01-29T13:44:00.161Z,979.13
2023-01-29T13:45:00.243Z,979.09
2023-01-29T13:46:00.320Z,979.11
2023-01-29T13:47:00.300Z,979.08
2023-01-29T13:48:00.336Z,979.07
2023-01-29T13:49:00.428Z,979.08
2023-01-29T13:50:00.464Z,979.11
2023-01-29T13:51:00.474Z,979.11
2023-01-29T13:52:00.516Z,979.07
2023-01-29T13:53:00.585Z,979.06
2023-01-29T13:54:00.594Z,979.02
2023-01-29T13:55:00.652Z,979.05
2023-01-29T13:56:00.681Z,979.04
2023-01-29T13:57:00.766Z,979.05
2023-01-29T13:58:00.778Z,979.07
2023-01-29T13:59:00.812Z,979.04
2023-01-29T14:00:00.865Z,979.08
2023-01-29T14:01:00.970Z,979.03
2023-01-29T14:02:00.967Z,979.10
2023-01-29T14:03:00.995Z,979.12
2023-01-29T14:04:05.421Z,979.10
2023-01-29T14:05:01.076Z,979.07
2023-01-29T14:06:01.145Z,979.15
2023-01-29T14:07:01.159Z,979.09
2023-01-29T14:08:01.201Z,979.11
2023-01-29T14:09:01.263Z,979.13
2023-01-29T14:10:01.292Z,979.12
2023-01-29T14:11:01.334Z,979.10
2023-01-29T14:12:01.377Z,979.11
2023-01-29T14:13:01.412Z,979.11
2023-01-29T14:14:01.473Z,979.07
2023-01-29T14:15:01.581Z,979.04
2023-01-29T14:16:01.554Z,979.01
2023-01-29T14:17:01.595Z,979.01
2023-01-29T14:18:01.661Z,979.01
2023-01-29T14:19:01.736Z,978.98
2023-01-29T14:20:01.708Z,978.98
2023-01-29T14:21:01.867Z,978.97
2023-01-29T14:22:01.811Z,978.97
2023-01-29T14:23:01.850Z,978.91
2023-01-29T14:24:01.890Z,978.91
2023-01-29T14:25:01.944Z,978.88
2023-01-29T14:26:02.040Z,978.87
2023-01-29T14:27:02.019Z,978.85
2023-01-29T14:28:02.066Z,978.82
2023-01-29T14:29:02.098Z,978.78
2023-01-29T14:30:02.215Z,978.76
2023-01-29T14:31:02.287Z,978.81
2023-01-29T14:32:02.242Z,978.77
2023-01-29T14:33:02.276Z,978.75
2023-01-29T14:34:02.321Z,978.74
2023-01-29T14:35:02.374Z,978.72
2023-01-29T14:36:02.396Z,978.71
2023-01-29T14:37:02.447Z,978.75
2023-01-29T14:38:02.523Z,978.78
2023-01-29T14:39:02.535Z,978.79
2023-01-29T14:40:02.573Z,978.78
2023-01-29T14:41:02.608Z,978.81
2023-01-29T14:42:02.670Z,978.81
2023-01-29T14:43:02.717Z,978.82
2023-01-29T14:44:02.744Z,978.81
2023-01-29T14:45:02.796Z,978.79
2023-01-29T14:46:02.857Z,978.79
2023-01-29T14:47:02.873Z,978.79
2023-01-29T14:48:03.029Z,978.79
2023-01-29T14:49:02.947Z,978.82
2023-01-29T14:50:03.028Z,978.84
2023-01-29T14:51:03.037Z,978.81
2023-01-29T14:52:03.111Z,978.78
2023-01-29T14:53:03.140Z,978.76
2023-01-29T14:54:03.180Z,978.76
2023-01-29T14:55:03.255Z,978.71
2023-01-29T14:56:03.275Z,978.73
2023-01-29T14:57:03.290Z,978.68
2023-01-29T14:58:03.341Z,978.67
2023-01-29T14:59:04.179Z,978.68
2023-01-29T15:00:03.550Z,978.66
2023-01-29T15:01:03.499Z,978.64
2023-01-29T15:02:03.537Z,978.61
2023-01-29T15:03:03.709Z,978.61
2023-01-29T15:04:03.588Z,978.63
2023-01-29T15:05:03.618Z,978.56
2023-01-29T15:06:03.732Z,978.58
2023-01-29T15:07:03.706Z,978.55
2023-01-29T15:08:03.759Z,978.55
2023-01-29T15:09:03.799Z,978.51
2023-01-29T15:10:21.385Z,978.48
2023-01-29T15:11:03.890Z,978.50
2023-01-29T15:12:03.922Z,978.48
2023-01-29T15:13:03.968Z,978.46
2023-01-29T15:14:04.011Z,978.47
2023-01-29T15:15:04.074Z,978.46
2023-01-29T15:16:04.679Z,978.49
2023-01-29T15:17:04.139Z,978.50
2023-01-29T15:18:04.176Z,978.48
2023-01-29T15:19:04.219Z,978.47
2023-01-29T15:20:04.282Z,978.48
2023-01-29T15:21:05.775Z,978.49
2023-01-29T15:22:04.341Z,978.48
2023-01-29T15:23:04.455Z,978.48
2023-01-29T15:24:04.417Z,978.49
2023-01-29T15:25:04.465Z,978.49
2023-01-29T15:26:04.549Z,978.53
2023-01-29T15:27:04.541Z,978.58
2023-01-29T15:28:04.587Z,978.57
2023-01-29T15:29:05.193Z,978.56
2023-01-29T15:30:04.677Z,978.60
2023-01-29T15:31:04.853Z,978.59
2023-01-29T15:32:04.789Z,978.59
2023-01-29T15:33:04.808Z,978.57
2023-01-29T15:34:05.696Z,978.64
2023-01-29T15:35:04.882Z,978.66
2023-01-29T15:36:08.693Z,978.65
2023-01-29T15:37:04.975Z,978.66
2023-01-29T15:38:05.033Z,978.68
2023-01-29T15:39:05.063Z,978.72
2023-01-29T15:40:05.121Z,978.69
2023-01-29T15:41:05.123Z,978.72
2023-01-29T15:42:05.186Z,978.72
2023-01-29T15:43:05.211Z,978.79
2023-01-29T15:44:05.244Z,978.76
2023-01-29T15:45:05.346Z,978.80
2023-01-29T15:46:05.332Z,978.80
2023-01-29T15:47:05.383Z,978.84
2023-01-29T15:48:05.419Z,978.87
2023-01-29T16:30:36.624Z,979.24
2023-01-29T16:31:36.773Z,979.26
2023-01-29T16:32:36.675Z,979.31
2023-01-29T16:33:36.691Z,979.26
2023-01-29T16:34:36.753Z,979.29
2023-01-29T16:35:37.475Z,979.36
2023-01-29T16:36:36.798Z,979.38
2023-01-29T16:37:36.827Z,979.40
2023-01-29T16:38:36.863Z,979.42
2023-01-29T16:39:36.930Z,979.41
2023-01-29T16:40:36.947Z,979.41
2023-01-29T16:41:36.977Z,979.43
2023-01-29T16:42:37.044Z,979.48
2023-01-29T16:43:42.435Z,979.45
2023-01-29T16:44:37.106Z,979.55
2023-01-29T16:45:37.168Z,979.56
2023-01-29T16:46:37.250Z,979.55
2023-01-29T16:47:37.231Z,979.55
2023-01-29T16:48:37.976Z,979.61
2023-01-29T16:49:37.306Z,979.63
2023-01-29T16:50:46.210Z,979.63
2023-01-29T16:51:37.421Z,979.66
2023-01-29T16:52:37.419Z,979.70
2023-01-29T16:53:37.498Z,979.74
2023-01-29T16:54:38.474Z,979.73
2023-01-29T16:55:37.526Z,979.76
2023-01-29T16:56:37.592Z,979.79
2023-01-29T16:57:37.622Z,979.77
2023-01-29T16:58:37.672Z,979.74
2023-01-29T16:59:37.693Z,979.78
2023-01-29T17:00:37.799Z,979.81
2023-01-29T17:01:37.817Z,979.76
2023-01-29T17:02:37.800Z,979.74
2023-01-29T17:03:37.910Z,979.79
2023-01-29T17:04:37.887Z,979.76
2023-01-29T17:05:37.925Z,979.73
2023-01-29T17:06:37.962Z,979.73
2023-01-29T17:07:38.000Z,979.71
2023-01-29T17:08:38.072Z,979.71
2023-01-29T17:09:38.115Z,979.72
2023-01-29T17:10:38.145Z,979.70
2023-01-29T17:11:38.174Z,979.72
2023-01-29T17:12:39.075Z,979.71
2023-01-29T17:13:38.269Z,979.77
2023-01-29T17:14:38.302Z,979.80
2023-01-29T17:15:38.314Z,979.74
2023-01-29T17:16:38.400Z,979.75
2023-01-29T17:17:38.393Z,979.74
2023-01-29T17:18:38.446Z,979.73
2023-01-29T17:19:38.482Z,979.72
2023-01-29T17:20:38.528Z,979.75
2023-01-29T17:21:38.588Z,979.76
2023-01-29T17:22:38.591Z,979.76
2023-01-29T17:23:38.631Z,979.70
2023-01-29T17:24:38.672Z,979.71
2023-01-29T17:25:38.732Z,979.69
2023-01-29T17:26:38.822Z,979.75
2023-01-29T17:27:38.793Z,979.75
2023-01-29T17:28:38.862Z,979.75
2023-01-29T17:29:38.879Z,979.76
2023-01-29T17:30:38.941Z,979.79
2023-01-29T17:31:39.011Z,979.77
2023-01-29T17:32:44.725Z,979.73
2023-01-29T17:33:39.039Z,979.74
2023-01-29T17:34:39.066Z,979.76
2023-01-29T17:35:39.115Z,979.71
2023-01-29T17:36:39.145Z,979.73
2023-01-29T17:37:39.219Z,979.74
2023-01-29T17:38:39.222Z,979.74
2023-01-29T17:39:39.271Z,979.73
2023-01-29T17:40:39.301Z,979.79
2023-01-29T17:41:39.369Z,979.76
2023-01-29T17:42:39.383Z,979.77
2023-01-29T17:43:39.982Z,979.80
2023-01-29T17:44:39.454Z,979.85
2023-01-29T17:45:39.528Z,979.84
2023-01-29T17:46:39.566Z,979.82
2023-01-29T17:47:39.597Z,979.78
2023-01-29T17:48:39.620Z,979.78
2023-01-29T17:49:39.681Z,979.81
2023-01-29T17:50:39.698Z,979.83
2023-01-29T17:51:39.732Z,979.84
2023-01-29T17:52:39.777Z,979.88
2023-01-29T17:53:46.081Z,979.86
2023-01-29T17:54:39.883Z,979.88
2023-01-29T17:55:39.892Z,979.89
2023-01-29T17:56:39.942Z,979.91
2023-01-29T17:57:39.977Z,979.91
2023-01-29T17:58:40.010Z,979.89
2023-01-29T17:59:40.167Z,979.90
2023-01-29T18:00:40.102Z,979.87
2023-01-29T18:01:40.155Z,979.88
2023-01-29T18:02:40.191Z,979.85
2023-01-29T18:03:40.238Z,979.86
2023-01-29T18:04:40.291Z,979.91
2023-01-29T18:05:40.283Z,979.94
2023-01-29T18:06:40.426Z,979.90
2023-01-29T18:07:40.362Z,979.92
2023-01-29T18:08:40.395Z,979.96
2023-01-29T18:09:42.131Z,979.92
2023-01-29T18:10:40.471Z,979.94
2023-01-29T18:11:40.540Z,979.96
2023-01-29T18:12:40.563Z,979.96
2023-01-29T18:13:40.599Z,979.98
2023-01-29T18:14:40.644Z,979.96
2023-01-29T18:15:40.671Z,979.98
2023-01-29T18:16:40.780Z,979.92
2023-01-29T18:17:40.769Z,979.92
2023-01-29T18:18:40.786Z,979.90
2023-01-29T18:19:40.826Z,979.89
2023-01-29T18:20:40.864Z,979.87
2023-01-29T18:21:40.927Z,979.91
2023-01-29T18:22:40.947Z,979.90
2023-01-29T18:23:40.999Z,979.92
2023-01-29T18:24:41.325Z,979.94
2023-01-29T18:25:41.076Z,979.91
2023-01-29T18:26:41.159Z,979.87
2023-01-29T18:27:41.147Z,979.92
2023-01-29T18:28:41.200Z,979.90
2023-01-29T18:29:41.243Z,979.90
2023-01-29T18:30:41.299Z,979.88
2023-01-29T18:31:41.358Z,979.93
2023-01-29T18:32:41.327Z,979.88
2023-01-29T18:33:41.403Z,979.92
2023-01-29T18:34:41.438Z,979.90
2023-01-29T18:35:41.462Z,979.91
2023-01-29T18:36:41.488Z,979.92
2023-01-29T18:37:41.534Z,979.90
2023-01-29T18:38:42.480Z,979.92
2023-01-29T18:39:41.623Z,979.88
2023-01-29T18:40:41.649Z,979.92
2023-01-29T18:41:41.688Z,979.90
2023-01-29T18:42:41.745Z,979.88
2023-01-29T18:43:41.763Z,979.92
2023-01-29T18:44:41.793Z,979.88
2023-01-29T18:45:41.940Z,979.88
2023-01-29T18:46:41.882Z,979.88
2023-01-29T18:47:41.920Z,979.89
2023-01-29T18:48:42.946Z,979.92
2023-01-29T18:49:41.996Z,979.91
2023-01-29T18:50:42.061Z,979.89
2023-01-29T18:51:42.073Z,979.88
2023-01-29T18:52:42.109Z,979.84
2023-01-29T18:53:42.154Z,979.87
2023-01-29T18:54:42.223Z,979.83
2023-01-29T18:55:42.261Z,979.87
2023-01-29T18:57:08.751Z,979.88
2023-01-29T18:58:33.523Z,979.89
2023-01-29T18:58:42.359Z,979.87
2023-01-29T18:59:42.404Z,979.86
2023-01-29T19:00:42.588Z,979.85
2023-01-29T19:01:42.459Z,979.81
2023-01-29T19:02:42.511Z,979.79
2023-01-29T19:03:42.552Z,979.79
2023-01-29T19:04:42.599Z,979.77
2023-01-29T19:05:42.658Z,979.77
2023-01-29T19:06:42.667Z,979.80
2023-01-29T19:07:42.709Z,979.78
2023-01-29T19:08:42.816Z,979.80
2023-01-29T19:09:42.796Z,979.79
2023-01-29T19:10:42.822Z,979.78
2023-01-29T19:11:42.863Z,979.76
2023-01-29T19:12:42.911Z,979.81
2023-01-29T19:13:42.969Z,979.81
2023-01-29T19:14:42.976Z,979.78
2023-01-29T19:15:43.060Z,979.75
2023-01-29T19:16:43.071Z,979.79
2023-01-29T19:17:43.107Z,979.78
2023-01-29T19:18:43.134Z,979.78
2023-01-29T19:19:43.181Z,979.84
2023-01-29T19:20:43.251Z,979.85
2023-01-29T19:21:43.266Z,979.84
2023-01-29T19:22:43.293Z,979.87
2023-01-29T19:23:43.345Z,979.94
2023-01-29T19:24:43.380Z,979.94
2023-01-29T19:25:43.445Z,979.94
2023-01-29T19:26:43.480Z,979.93
2023-01-29T19:27:43.504Z,979.93
2023-01-29T19:28:43.560Z,979.97
2023-01-29T19:29:43.582Z,979.91
2023-01-29T19:30:43.632Z,979.92
2023-01-29T19:31:43.730Z,979.96
2023-01-29T19:32:43.701Z,979.90
2023-01-29T19:33:43.738Z,979.96
2023-01-29T19:34:43.775Z,979.95
2023-01-29T19:35:43.810Z,979.96
2023-01-29T19:36:43.888Z,980.00
2023-01-29T19:37:43.898Z,979.99
2023-01-29T19:38:43.938Z,980.03
2023-01-29T19:39:43.967Z,979.99
2023-01-29T19:40:44.032Z,980.03
2023-01-29T19:41:44.089Z,979.96
2023-01-29T19:42:44.092Z,979.95
2023-01-29T19:43:44.126Z,979.94
2023-01-29T19:44:44.177Z,979.95
2023-01-29T19:45:49.610Z,979.98
2023-01-29T19:46:44.281Z,979.95
2023-01-29T19:47:44.320Z,979.94
2023-01-29T19:48:44.353Z,979.95
2023-01-29T19:49:44.374Z,979.94
2023-01-29T19:50:44.407Z,979.93
2023-01-29T19:51:44.454Z,979.95
2023-01-29T19:52:52.005Z,979.97
2023-01-29T19:53:44.568Z,980.00
2023-01-29T19:54:44.596Z,979.99
2023-01-29T19:55:44.635Z,979.98
2023-01-29T19:56:44.669Z,980.01
2023-01-29T19:57:44.688Z,980.04
2023-01-29T19:58:44.797Z,980.01
2023-01-29T19:59:45.931Z,980.03
2023-01-29T20:00:44.853Z,980.07
2023-01-29T20:01:44.902Z,980.02
2023-01-29T20:02:44.911Z,980.04
2023-01-29T20:03:44.921Z,980.04
2023-01-29T20:04:44.984Z,980.05
2023-01-29T20:05:45.061Z,980.02
2023-01-29T20:06:45.122Z,980.05
2023-01-29T20:07:45.126Z,980.06
2023-01-29T20:08:45.147Z,980.05
2023-01-29T20:09:45.178Z,980.07
2023-01-29T20:10:45.239Z,980.12
2023-01-29T20:11:45.288Z,980.12
2023-01-29T20:12:45.319Z,980.14
2023-01-29T20:13:45.341Z,980.11
2023-01-29T20:14:45.427Z,980.13
2023-01-29T20:15:45.434Z,980.11
2023-01-29T20:16:45.474Z,980.14
2023-01-29T20:17:45.531Z,980.09
2023-01-29T20:18:45.544Z,980.09
2023-01-29T20:19:45.577Z,980.08
2023-01-29T20:20:45.693Z,980.10
2023-01-29T20:21:46.159Z,980.09
2023-01-29T20:22:45.731Z,980.05
2023-01-29T20:23:46.065Z,980.09
2023-01-29T20:24:45.767Z,980.11
2023-01-29T20:25:45.798Z,980.09
2023-01-29T20:26:45.948Z,980.09
2023-01-29T20:27:45.912Z,980.11
2023-01-29T20:28:45.959Z,980.10
2023-01-29T20:29:46.042Z,980.10
2023-01-29T20:30:46.124Z,980.09
2023-01-29T20:31:46.116Z,980.14
2023-01-29T20:32:46.079Z,980.09
2023-01-29T20:33:46.132Z,980.08
2023-01-29T20:34:46.157Z,980.10
2023-01-29T20:35:46.213Z,980.11
2023-01-29T20:36:46.244Z,980.13
2023-01-29T20:37:46.274Z,980.10
2023-01-29T20:38:46.306Z,980.08
2023-01-29T20:39:46.344Z,980.12
2023-01-29T20:40:46.458Z,980.12
2023-01-29T20:41:46.427Z,980.14
2023-01-29T20:42:46.475Z,980.08
2023-01-29T20:43:46.521Z,980.09
2023-01-29T20:44:46.560Z,980.06
2023-01-29T20:45:46.648Z,980.09
2023-01-29T20:46:46.650Z,980.07
2023-01-29T20:47:46.673Z,980.06
2023-01-29T20:48:46.731Z,980.04
2023-01-29T20:49:46.767Z,980.03
2023-01-29T20:50:46.825Z,980.05
2023-01-29T20:51:46.827Z,980.02
2023-01-29T20:52:46.952Z,980.00
2023-01-29T20:53:46.957Z,980.00
2023-01-29T20:54:46.946Z,979.97
2023-01-29T20:55:47.052Z,979.96
2023-01-29T20:56:47.388Z,979.98
2023-01-29T20:58:05.849Z,979.96
2023-01-29T20:58:47.149Z,979.97
2023-01-29T20:59:47.153Z,979.97
2023-01-29T21:00:48.033Z,979.95
2023-01-29T21:01:47.271Z,979.92
2023-01-29T21:02:47.280Z,979.92
2023-01-29T21:03:47.297Z,979.88
2023-01-29T21:04:47.324Z,979.90
2023-01-29T21:05:47.421Z,979.88
2023-01-29T21:06:47.396Z,979.93
2023-01-29T21:07:47.468Z,979.88
2023-01-29T21:08:47.471Z,979.86
2023-01-29T21:09:47.518Z,979.88
2023-01-29T21:10:47.563Z,979.88
2023-01-29T21:11:47.596Z,979.89
2023-01-29T21:12:47.657Z,979.83
2023-01-29T21:13:47.683Z,979.83
2023-01-29T21:14:47.727Z,979.87
2023-01-29T21:15:47.782Z,979.83
2023-01-29T21:16:47.892Z,979.85
2023-01-29T21:17:47.830Z,979.84
2023-01-29T21:30:10.691Z,979.67
2023-01-29T21:31:10.733Z,979.65
2023-01-29T21:32:10.743Z,979.67
2023-01-29T21:33:10.805Z,979.69
2023-01-29T21:34:10.820Z,979.67
2023-01-29T21:35:10.888Z,979.66
2023-01-29T21:36:10.887Z,979.68
2023-01-29T21:37:10.937Z,979.68
2023-01-29T21:38:10.977Z,979.66
2023-01-29T21:39:11.006Z,979.66
2023-01-29T21:40:11.057Z,979.65
2023-01-29T21:41:11.110Z,979.64
2023-01-29T21:42:11.121Z,979.65
2023-01-29T21:43:11.149Z,979.66